Time;durP1;ratioP1;P1;durP2;ratioP2;P2;SDS_P1;SDS_P2;PMS_P1;PMS_P2;Temp;Humidity;BMP_temperature;BMP_pressure;BME280_temperature;BME280_humidity;BME280_pressure;Samples;Min_cycle;Max_cycle;Signal;HPM_P1;HPM_P2
2021/08/04 00:01:06;;;;;;;9.47;6.73;;;;;;;24.26;100.00;96433.25;5071702;28;20189;-78
2021/08/04 00:03:35;;;;;;;7.27;6.50;;;;;;;24.35;100.00;96435.31;5071629;28;20288;-78
2021/08/04 00:06:02;;;;;;;8.27;6.60;;;;;;;24.35;100.00;96432.63;5072035;28;20304;-78
2021/08/04 00:08:29;;;;;;;7.30;6.17;;;;;;;23.95;100.00;96427.31;5072163;28;20201;-78
2021/08/04 00:10:57;;;;;;;8.63;7.20;;;;;;;23.91;100.00;96426.97;5071496;28;20228;-78
2021/08/04 00:13:24;;;;;;;7.77;7.07;;;;;;;23.93;100.00;96424.88;5071471;28;20201;-78
2021/08/04 00:15:54;;;;;;;7.50;6.63;;;;;;;23.84;100.00;96426.28;5071472;28;20311;-78
2021/08/04 00:18:21;;;;;;;8.90;7.10;;;;;;;23.92;100.00;96428.59;5071739;28;20203;-78
2021/08/04 00:20:49;;;;;;;8.00;7.30;;;;;;;23.87;100.00;96425.81;5071177;28;20228;-78
2021/08/04 00:23:16;;;;;;;7.87;7.17;;;;;;;23.95;100.00;96430.00;5071692;28;20236;-78
2021/08/04 00:25:43;;;;;;;8.43;7.63;;;;;;;24.03;100.00;96429.59;5071254;28;20208;-78
2021/08/04 00:28:10;;;;;;;7.90;7.10;;;;;;;23.81;100.00;96423.28;5071843;28;20287;-78
2021/08/04 00:30:38;;;;;;;7.73;6.97;;;;;;;23.81;100.00;96424.09;5071334;28;20774;-78
2021/08/04 00:33:07;;;;;;;9.20;6.77;;;;;;;24.04;100.00;96430.41;5074511;28;20222;-79
2021/08/04 00:35:34;;;;;;;12.00;7.57;;;;;;;23.83;100.00;96435.41;5095063;28;20287;-80
2021/08/04 00:38:02;;;;;;;7.90;7.10;;;;;;;23.66;100.00;96429.94;5095698;28;20707;-79
2021/08/04 00:40:29;;;;;;;8.83;7.10;;;;;;;23.45;100.00;96426.03;5095730;28;20231;-79
2021/08/04 00:42:57;;;;;;;7.67;6.97;;;;;;;23.35;100.00;96433.84;5095831;28;20203;-78
2021/08/04 00:45:25;;;;;;;11.23;7.43;;;;;;;23.51;100.00;96421.56;5095339;28;20207;-78
2021/08/04 00:47:52;;;;;;;8.53;7.50;;;;;;;;;;5095483;28;20228;-78
2021/08/04 00:50:20;;;;;;;7.20;6.43;;;;;;;23.62;100.00;96427.94;5095831;28;20267;-79
2021/08/04 00:52:48;;;;;;;9.67;7.57;;;;;;;23.67;100.00;96425.38;5095343;28;20200;-79
2021/08/04 00:55:16;;;;;;;8.20;7.40;;;;;;;23.65;100.00;96422.09;5095461;28;20203;-79
2021/08/04 00:57:43;;;;;;;9.33;7.40;;;;;;;23.55;100.00;96425.41;5094883;28;20243;-79
2021/08/04 01:00:12;;;;;;;8.97;6.97;;;;;;;23.56;100.00;96423.56;5095372;28;20283;-79
2021/08/04 01:02:45;;;;;;;8.23;6.70;;;;;;;23.50;100.00;96420.75;5095301;28;20247;-79
2021/08/04 01:05:17;;;;;;;8.07;7.00;;;;;;;23.30;100.00;96427.53;5095390;28;20608;-79
2021/08/04 01:07:54;;;;;;;9.47;7.03;;;;;;;23.30;100.00;96423.00;5095190;28;20223;-79
2021/08/04 01:10:23;;;;;;;8.63;6.83;;;;;;;23.40;100.00;96425.91;5075486;28;20213;-78
2021/08/04 01:12:58;;;;;;;9.13;8.20;;;;;;;23.37;100.00;96421.00;5074621;28;20197;-79
2021/08/04 01:15:31;;;;;;;10.80;7.03;;;;;;;23.35;100.00;96427.69;5074550;28;20195;-79
2021/08/04 01:18:01;;;;;;;8.23;7.13;;;;;;;23.28;100.00;96411.69;5074662;28;20550;-79
2021/08/04 01:20:31;;;;;;;8.37;7.47;;;;;;;23.38;100.00;96417.28;5074460;28;20188;-79
2021/08/04 01:23:12;;;;;;;11.50;6.90;;;;;;;23.31;100.00;96427.31;5074330;28;20654;-79
2021/08/04 01:25:50;;;;;;;7.10;6.40;;;;;;;23.23;100.00;96423.13;5074503;28;20181;-78
2021/08/04 01:28:22;;;;;;;9.13;7.07;;;;;;;23.09;100.00;96419.06;5074605;28;20189;-79
2021/08/04 01:30:53;;;;;;;8.67;7.83;;;;;;;22.94;100.00;96416.03;5073981;28;20209;-79
2021/08/04 01:33:22;;;;;;;7.40;6.63;;;;;;;23.02;100.00;96407.63;5074497;28;20672;-79
2021/08/04 01:35:50;;;;;;;9.97;7.07;;;;;;;23.11;100.00;96418.84;5074303;28;20193;-81
2021/08/04 01:38:20;;;;;;;8.80;7.90;;;;;;;23.08;100.00;96416.63;5074077;28;20280;-80
2021/08/04 01:40:50;;;;;;;8.83;7.63;;;;;;;22.96;100.00;96413.91;5074174;28;20197;-80
2021/08/04 01:43:20;;;;;;;7.77;7.07;;;;;;;22.87;100.00;96418.00;5074253;28;20185;-79
2021/08/04 01:45:47;;;;;;;7.83;7.10;;;;;;;22.82;100.00;96418.66;5072809;28;20189;-80
2021/08/04 01:48:15;;;;;;;9.73;7.50;;;;;;;22.77;100.00;96411.31;5073918;28;20201;-79
2021/08/04 01:50:44;;;;;;;8.53;7.20;;;;;;;23.09;100.00;96412.88;5073901;28;20224;-79
2021/08/04 01:53:11;;;;;;;8.03;7.30;;;;;;;23.01;100.00;96408.69;5074104;28;20288;-79
2021/08/04 01:55:39;;;;;;;9.80;7.57;;;;;;;22.79;100.00;96419.97;5073676;28;20251;-80
2021/08/04 01:58:06;;;;;;;9.00;7.07;;;;;;;22.65;100.00;96412.34;5073871;28;20197;-80
2021/08/04 02:00:35;;;;;;;8.87;7.97;;;;;;;22.54;100.00;96409.44;5073786;28;20201;-80
2021/08/04 02:03:02;;;;;;;12.40;8.30;;;;;;;22.74;100.00;96409.09;5073728;28;20560;-80
2021/08/04 02:05:29;;;;;;;10.97;7.87;;;;;;;22.60;100.00;96410.38;5073545;28;20201;-80
2021/08/04 02:08:07;;;;;;;9.33;7.63;;;;;;;22.46;100.00;96412.44;5073990;28;20584;-80
2021/08/04 02:10:43;;;;;;;8.07;7.27;;;;;;;22.46;100.00;96409.78;5073857;28;20212;-80
2021/08/04 02:13:23;;;;;;;8.53;7.63;;;;;;;22.51;100.00;96417.94;5073702;28;20268;-80
2021/08/04 02:16:00;;;;;;;8.30;7.50;;;;;;;22.64;100.00;96408.06;5073297;28;20185;-80
2021/08/04 02:18:32;;;;;;;10.67;8.10;;;;;;;22.39;100.00;96417.09;5074046;28;20267;-80
2021/08/04 02:21:03;;;;;;;10.97;7.80;;;;;;;22.51;100.00;96417.94;5073272;28;20671;-80
2021/08/04 02:23:38;;;;;;;9.03;8.03;;;;;;;22.38;100.00;96422.69;5073377;28;20638;-80
2021/08/04 02:26:13;;;;;;;8.70;7.47;;;;;;;22.55;100.00;96429.03;5073627;28;20615;-79
2021/08/04 02:28:43;;;;;;;9.63;8.60;;;;;;;22.29;100.00;96422.19;5073743;28;20246;-80
2021/08/04 02:31:16;;;;;;;9.50;7.63;;;;;;;22.54;100.00;96420.16;5072907;28;20217;-79
2021/08/04 02:33:44;;;;;;;11.60;7.23;;;;;;;22.50;100.00;96428.88;5073448;28;20565;-79
2021/08/04 02:36:12;;;;;;;9.83;8.57;;;;;;;22.55;100.00;96421.78;5072609;28;20686;-79
2021/08/04 02:38:40;;;;;;;11.57;8.10;;;;;;;22.42;100.00;96423.88;5073233;28;20621;-79
2021/08/04 02:41:08;;;;;;;9.37;7.30;;;;;;;22.46;100.00;96427.72;5072990;28;20251;-79
2021/08/04 02:43:35;;;;;;;8.80;7.83;;;;;;;22.48;100.00;96423.75;5072949;28;20201;-79
2021/08/04 02:46:04;;;;;;;13.43;8.80;;;;;;;22.39;100.00;96430.50;5072946;28;20308;-79
2021/08/04 02:48:34;;;;;;;9.67;7.83;;;;;;;22.49;100.00;96436.09;5073269;28;20300;-79
2021/08/04 02:51:05;;;;;;;8.50;7.60;;;;;;;22.51;100.00;96444.75;5072840;28;20300;-79
2021/08/04 02:53:32;;;;;;;20.77;8.57;;;;;;;22.41;100.00;96441.78;5073051;28;20677;-79
2021/08/04 02:56:00;;;;;;;11.27;8.07;;;;;;;22.35;100.00;96444.56;5078377;28;20200;-79
2021/08/04 02:58:28;;;;;;;11.47;8.50;;;;;;;22.45;100.00;96444.84;5083266;28;20279;-79
2021/08/04 03:00:55;;;;;;;9.80;8.20;;;;;;;22.31;100.00;96444.22;5080561;28;20201;-79
2021/08/04 03:03:24;;;;;;;8.50;7.70;;;;;;;22.36;100.00;96451.56;5089538;28;20286;-79
2021/08/04 03:05:52;;;;;;;10.33;8.63;;;;;;;22.23;100.00;96453.34;5092776;28;20200;-79
2021/08/04 03:08:20;;;;;;;16.00;8.57;;;;;;;22.29;100.00;96457.00;5092888;28;20228;-79
2021/08/04 03:10:47;;;;;;;10.13;8.40;;;;;;;22.05;100.00;96440.81;5092316;28;20731;-79
2021/08/04 03:13:15;;;;;;;9.23;8.20;;;;;;;21.99;100.00;96443.56;5092503;28;20291;-79
2021/08/04 03:15:42;;;;;;;11.20;8.67;;;;;;;22.23;100.00;96445.31;5092902;28;20297;-79
2021/08/04 03:18:10;;;;;;;8.13;7.43;;;;;;;22.02;100.00;96445.81;5092898;28;20578;-79
2021/08/04 03:20:38;;;;;;;10.57;7.60;;;;;;;22.11;100.00;96443.66;5092050;28;20199;-79
2021/08/04 03:23:07;;;;;;;9.43;8.17;;;;;;;22.14;100.00;96448.53;5092533;28;20188;-79
2021/08/04 03:25:34;;;;;;;8.80;8.00;;;;;;;22.18;100.00;96447.06;5084131;28;20203;-78
2021/08/04 03:28:01;;;;;;;13.37;7.87;;;;;;;22.21;100.00;96446.63;5091752;28;20201;-79
2021/08/04 03:30:29;;;;;;;9.20;8.27;;;;;;;22.31;100.00;96449.56;5091417;28;20311;-78
2021/08/04 03:32:56;;;;;;;13.37;8.50;;;;;;;22.09;100.00;96446.53;5092121;28;20196;-78
2021/08/04 03:35:23;;;;;;;8.47;7.67;;;;;;;22.16;100.00;96451.81;5092432;28;20740;-79
2021/08/04 03:37:50;;;;;;;16.43;9.13;;;;;;;22.13;100.00;96446.88;5092244;28;20200;-78
2021/08/04 03:40:19;;;;;;;11.17;8.60;;;;;;;22.07;100.00;96449.44;5092420;28;20192;-79
2021/08/04 03:42:46;;;;;;;9.90;8.97;;;;;;;21.96;100.00;96463.59;5092258;28;20585;-79
2021/08/04 03:45:13;;;;;;;10.20;8.50;;;;;;;22.13;100.00;96458.41;5092309;28;20196;-78
2021/08/04 03:47:41;;;;;;;11.20;8.33;;;;;;;21.80;100.00;96464.22;5092048;28;20282;-78
2021/08/04 03:50:10;;;;;;;10.03;7.53;;;;;;;21.57;100.00;96468.38;5092222;28;20199;-78
2021/08/04 03:52:37;;;;;;;9.90;8.10;;;;;;;21.79;100.00;96471.41;5092330;28;20196;-79
2021/08/04 03:55:05;;;;;;;9.87;8.07;;;;;;;21.60;100.00;96481.28;5092199;28;20641;-78
2021/08/04 03:57:34;;;;;;;10.97;8.23;;;;;;;21.31;100.00;96487.34;5092212;28;20223;-78
2021/08/04 04:00:01;;;;;;;9.63;8.30;;;;;;;21.08;100.00;96488.78;5092137;28;20655;-78
2021/08/04 04:02:28;;;;;;;9.67;7.47;;;;;;;21.38;100.00;96481.97;5091683;28;20192;-78
2021/08/04 04:04:56;;;;;;;10.37;7.97;;;;;;;21.78;100.00;96474.31;5092028;28;20251;-78
2021/08/04 04:07:23;;;;;;;8.77;7.97;;;;;;;21.96;100.00;96473.47;5092128;28;20228;-79
2021/08/04 04:09:50;;;;;;;14.83;7.93;;;;;;;21.95;100.00;96478.00;5091101;28;20196;-79
2021/08/04 04:12:17;;;;;;;12.80;7.60;;;;;;;22.09;100.00;96484.00;5091481;28;20273;-79
2021/08/04 04:14:46;;;;;;;12.10;8.07;;;;;;;22.11;100.00;96481.94;5091888;28;20253;-79
2021/08/04 04:17:14;;;;;;;9.37;8.47;;;;;;;22.28;100.00;96471.44;5091791;28;20208;-79
2021/08/04 04:19:41;;;;;;;8.77;7.90;;;;;;;22.19;100.00;96480.81;5091628;28;20286;-78
2021/08/04 04:22:08;;;;;;;12.13;8.33;;;;;;;22.33;100.00;96484.13;5091318;28;20238;-79
2021/08/04 04:24:35;;;;;;;10.73;7.97;;;;;;;22.27;100.00;96485.84;5091899;28;20228;-79
2021/08/04 04:27:03;;;;;;;9.10;7.33;;;;;;;22.26;100.00;96476.19;5091650;28;20287;-79
2021/08/04 04:29:30;;;;;;;8.93;8.03;;;;;;;22.23;100.00;96464.06;5091623;28;20286;-79
2021/08/04 04:31:59;;;;;;;8.70;7.43;;;;;;;22.26;100.00;96468.97;5091836;28;20224;-78
2021/08/04 04:34:26;;;;;;;12.03;8.53;;;;;;;22.24;100.00;96462.22;5091833;28;20200;-79
2021/08/04 04:36:53;;;;;;;10.03;8.30;;;;;;;22.31;100.00;96465.63;5091853;28;20636;-79
2021/08/04 04:39:21;;;;;;;11.80;9.37;;;;;;;22.31;100.00;96462.97;5091818;28;20224;-79
2021/08/04 04:41:48;;;;;;;9.30;8.43;;;;;;;22.28;100.00;96463.41;5091296;28;20192;-79
2021/08/04 04:44:15;;;;;;;14.93;8.33;;;;;;;22.45;100.00;96466.25;5091728;28;20196;-79
2021/08/04 04:46:42;;;;;;;10.00;8.50;;;;;;;22.40;100.00;96463.44;5091521;28;20727;-79
2021/08/04 04:49:11;;;;;;;10.03;7.80;;;;;;;22.50;100.00;96472.53;5091417;28;20208;-79
2021/08/04 04:51:39;;;;;;;8.73;7.90;;;;;;;22.66;100.00;96478.31;5091476;28;20783;-79
2021/08/04 04:54:06;;;;;;;8.93;7.90;;;;;;;22.70;100.00;96480.28;5091562;28;20287;-79
2021/08/04 04:56:33;;;;;;;14.23;8.13;;;;;;;22.70;100.00;96495.53;5091737;28;20192;-79
2021/08/04 04:59:00;;;;;;;10.53;8.00;;;;;;;22.61;100.00;96500.41;5091197;28;20196;-79
2021/08/04 05:01:27;;;;;;;9.50;8.57;;;;;;;22.55;100.00;96509.38;5091363;28;20196;-79
2021/08/04 05:03:55;;;;;;;10.20;7.97;;;;;;;22.63;100.00;96518.94;5091887;28;20200;-79
2021/08/04 05:06:23;;;;;;;11.63;7.70;;;;;;;22.64;100.00;96528.59;5091252;28;20654;-79
2021/08/04 05:08:51;;;;;;;8.73;7.27;;;;;;;22.74;100.00;96536.91;5091205;28;20253;-79
2021/08/04 05:11:18;;;;;;;9.87;7.93;;;;;;;22.63;100.00;96535.03;5091199;28;20259;-79
2021/08/04 05:13:45;;;;;;;8.03;7.33;;;;;;;22.59;100.00;96528.50;5091408;28;20211;-79
2021/08/04 05:16:12;;;;;;;11.20;7.60;;;;;;;22.78;100.00;96530.84;5091243;28;20287;-79
2021/08/04 05:18:40;;;;;;;8.50;7.27;;;;;;;22.86;100.00;96528.88;5091114;28;20265;-79
2021/08/04 05:21:07;;;;;;;9.63;7.80;;;;;;;22.91;100.00;96529.84;5094061;28;20275;-79
2021/08/04 05:23:36;;;;;;;9.03;7.07;;;;;;;23.02;100.00;96529.06;5095079;28;20200;-79
2021/08/04 05:26:03;;;;;;;7.43;6.73;;;;;;;23.15;100.00;96536.09;5094527;28;20257;-79
2021/08/04 05:28:30;;;;;;;7.67;6.97;;;;;;;23.13;100.00;96534.69;5094959;28;20192;-79
2021/08/04 05:30:58;;;;;;;8.10;7.30;;;;;;;23.31;100.00;96531.91;5094451;28;20210;-79
2021/08/04 05:33:25;;;;;;;8.43;7.47;;;;;;;23.34;100.00;96533.28;5095273;28;20291;-79
2021/08/04 05:35:52;;;;;;;7.97;7.17;;;;;;;23.50;100.00;96530.72;5094577;28;20193;-79
2021/08/04 05:38:19;;;;;;;10.10;7.47;;;;;;;23.59;100.00;96533.06;5094842;28;20232;-79
2021/08/04 05:40:48;;;;;;;9.50;7.47;;;;;;;23.70;100.00;96532.28;5094253;28;20239;-78
2021/08/04 05:43:16;;;;;;;13.37;8.63;;;;;;;23.88;100.00;96529.44;5094733;28;20200;-79
2021/08/04 05:45:43;;;;;;;10.80;8.10;;;;;;;24.05;100.00;96539.47;5094588;28;20283;-79
2021/08/04 05:48:10;;;;;;;9.10;8.07;;;;;;;24.16;100.00;96538.59;5094590;28;20279;-79
2021/08/04 05:50:37;;;;;;;13.17;7.83;;;;;;;24.25;100.00;96531.81;5094130;28;20261;-79
2021/08/04 05:53:05;;;;;;;16.53;8.50;;;;;;;24.51;100.00;96537.69;5094387;28;20224;-78
2021/08/04 05:55:33;;;;;;;9.03;8.13;;;;;;;24.60;100.00;96537.06;5094662;28;20214;-79
2021/08/04 05:58:02;;;;;;;10.47;7.93;;;;;;;24.70;100.00;96544.50;5094352;28;20196;-79
2021/08/04 06:00:29;;;;;;;16.87;8.77;;;;;;;24.72;100.00;96547.75;5094025;28;20201;-79
2021/08/04 06:02:56;;;;;;;10.27;7.20;;;;;;;24.78;100.00;96551.34;5094609;28;20280;-79
2021/08/04 06:05:24;;;;;;;9.47;8.40;;;;;;;24.83;100.00;96546.88;5094255;28;20188;-79
2021/08/04 06:07:51;;;;;;;8.90;8.10;;;;;;;25.19;100.00;96544.03;5094113;28;20228;-79
2021/08/04 06:10:18;;;;;;;11.97;8.33;;;;;;;25.47;100.00;96546.59;5094246;28;20255;-79
2021/08/04 06:12:45;;;;;;;9.10;8.20;;;;;;;25.60;100.00;96551.66;5093916;28;20216;-79
2021/08/04 06:15:14;;;;;;;8.95;7.70;;;;;;;25.89;100.00;96550.72;5094364;28;20218;-79
2021/08/04 06:17:42;;;;;;;12.43;8.40;;;;;;;26.05;100.00;96553.38;5093961;28;20287;-79
2021/08/04 06:20:10;;;;;;;8.95;8.07;;;;;;;26.12;100.00;96561.28;5093665;28;20553;-79
2021/08/04 06:22:37;;;;;;;10.25;7.95;;;;;;;26.22;100.00;96558.72;5093696;28;20224;-79
2021/08/04 06:25:06;;;;;;;11.95;8.90;;;;;;;25.89;100.00;96564.19;5094143;28;20204;-79
2021/08/04 06:27:33;;;;;;;10.57;8.55;;;;;;;25.89;100.00;96570.38;5094006;28;20621;-79
2021/08/04 06:30:00;;;;;;;9.75;7.80;;;;;;;26.19;100.00;96569.16;5093784;28;20279;-79
2021/08/04 06:32:29;;;;;;;11.20;7.78;;;;;;;26.37;100.00;96578.81;5092611;28;20750;-79
2021/08/04 06:34:56;;;;;;;8.88;7.95;;;;;;;26.47;100.00;96568.19;5093793;28;20196;-79
2021/08/04 06:37:24;;;;;;;10.95;8.05;;;;;;;26.94;100.00;96568.38;5093459;28;20200;-79
2021/08/04 06:39:51;;;;;;;11.10;8.45;;;;;;;27.30;100.00;96563.34;5093651;28;20300;-79
2021/08/04 06:42:19;;;;;;;10.15;8.50;;;;;;;27.19;100.00;96562.47;5093597;28;20613;-79
2021/08/04 06:44:46;;;;;;;8.88;7.97;;;;;;;27.43;100.00;96559.38;5093480;28;20576;-79
2021/08/04 06:47:14;;;;;;;12.30;9.55;;;;;;;27.75;100.00;96564.75;5093604;28;20299;-79
2021/08/04 06:49:42;;;;;;;11.50;8.95;;;;;;;27.43;100.00;96573.72;5093451;28;20196;-79
2021/08/04 06:52:10;;;;;;;8.23;7.43;;;;;;;27.68;100.00;96575.78;5093121;28;20255;-79
2021/08/04 06:54:37;;;;;;;10.27;7.78;;;;;;;27.90;100.00;96572.97;5093265;28;20201;-79
2021/08/04 06:57:05;;;;;;;12.98;9.13;;;;;;;27.87;100.00;96578.88;5093488;28;20279;-79
2021/08/04 06:59:32;;;;;;;8.75;7.85;;;;;;;27.72;100.00;96587.69;5093472;28;20275;-79
2021/08/04 07:02:01;;;;;;;9.77;7.13;;;;;;;27.79;100.00;96587.50;5092758;28;20622;-79
2021/08/04 07:04:29;;;;;;;8.35;7.18;;;;;;;28.02;100.00;96580.03;5093167;28;20243;-79
2021/08/04 07:06:59;;;;;;;10.57;6.90;;;;;;;28.04;100.00;96577.91;5092959;28;20661;-79
2021/08/04 07:09:28;;;;;;;9.50;6.82;;;;;;;28.11;100.00;96575.78;5092810;28;20195;-79
2021/08/04 07:11:55;;;;;;;10.85;7.40;;;;;;;28.17;100.00;96580.94;5093076;28;20251;-80
2021/08/04 07:14:23;;;;;;;7.05;6.32;;;;;;;28.11;100.00;96582.00;5092983;28;20196;-79
2021/08/04 07:16:50;;;;;;;11.00;7.57;;;;;;;28.20;100.00;96587.72;5092677;28;20586;-79
2021/08/04 07:19:18;;;;;;;8.32;7.47;;;;;;;28.34;100.00;96583.47;5093099;28;20218;-79
2021/08/04 07:21:45;;;;;;;9.45;7.55;;;;;;;28.51;100.00;96586.00;5092266;28;20224;-79
2021/08/04 07:24:15;;;;;;;9.82;8.77;;;;;;;28.78;100.00;96574.16;5092679;28;20228;-79
2021/08/04 07:26:43;;;;;;;8.80;7.72;;;;;;;28.72;100.00;96586.88;5092624;28;20196;-79
2021/08/04 07:29:11;;;;;;;9.07;8.18;;;;;;;28.90;100.00;96580.13;5092682;28;20216;-79
2021/08/04 07:31:39;;;;;;;11.80;8.10;;;;;;;28.98;100.00;96582.31;5092154;28;20310;-79
2021/08/04 07:34:08;;;;;;;11.27;9.07;;;;;;;29.39;100.00;96590.50;5092549;28;20239;-80
2021/08/04 07:36:36;;;;;;;11.48;8.73;;;;;;;29.11;100.00;96581.81;5092680;28;20224;-80
2021/08/04 07:39:04;;;;;;;12.02;9.10;;;;;;;29.50;100.00;96588.59;5092523;28;20200;-79
2021/08/04 07:41:33;;;;;;;10.50;8.38;;;;;;;29.50;100.00;96583.97;5092078;28;20287;-79
2021/08/04 07:44:00;;;;;;;9.68;8.45;;;;;;;29.39;100.00;96583.19;5091771;28;20188;-80
2021/08/04 07:46:28;;;;;;;9.95;8.80;;;;;;;29.44;100.00;96589.66;5092213;28;20254;-80
2021/08/04 07:48:55;;;;;;;8.32;7.57;;;;;;;29.67;100.00;96591.84;5092112;28;20193;-80
2021/08/04 07:51:22;;;;;;;10.73;8.60;;;;;;;29.79;100.00;96596.97;5092104;28;20203;-80
2021/08/04 07:53:50;;;;;;;10.13;9.07;;;;;;;30.03;100.00;96598.03;5092213;28;20204;-81
2021/08/04 07:56:21;;;;;;;10.52;9.45;;;;;;;30.05;100.00;96598.56;5092180;28;20279;-80
2021/08/04 07:58:50;;;;;;;14.70;9.38;;;;;;;30.24;100.00;96596.13;5092314;28;20187;-81
2021/08/04 08:01:18;;;;;;;8.85;7.95;;;;;;;30.23;100.00;96599.09;5092038;28;20224;-81
2021/08/04 08:03:46;;;;;;;11.90;8.23;;;;;;;30.24;100.00;96598.81;5092249;28;20188;-80
2021/08/04 08:06:13;;;;;;;12.60;8.30;;;;;;;30.45;100.00;96596.84;5092262;28;20199;-80
2021/08/04 08:08:40;;;;;;;11.27;9.00;;;;;;;30.24;100.00;96590.69;5092456;28;20206;-80
2021/08/04 08:11:08;;;;;;;9.93;8.35;;;;;;;30.43;100.00;96580.03;5091910;28;20192;-81
2021/08/04 08:13:35;;;;;;;12.82;10.00;;;;;;;30.07;100.00;96588.28;5091962;28;20273;-81
2021/08/04 08:16:04;;;;;;;14.13;9.60;;;;;;;30.27;100.00;96589.31;5091728;28;20192;-80
2021/08/04 08:18:32;;;;;;;10.95;10.00;;;;;;;30.43;100.00;96587.34;5092011;28;20611;-81
2021/08/04 08:20:59;;;;;;;11.15;10.15;;;;;;;30.69;100.00;96602.44;5089102;28;20228;-81
2021/08/04 08:23:26;;;;;;;11.05;9.95;;;;;;;30.76;100.00;96599.44;5092295;28;20188;-81
2021/08/04 08:25:54;;;;;;;9.32;8.38;;;;;;;30.52;100.00;96599.25;5091712;28;20249;-80
2021/08/04 08:28:21;;;;;;;9.65;8.55;;;;;;;30.77;100.00;96592.94;5091939;28;20200;-81
2021/08/04 08:30:48;;;;;;;10.05;8.82;;;;;;;30.78;100.00;96589.91;5091613;28;20203;-80
2021/08/04 08:33:17;;;;;;;15.60;10.15;;;;;;;30.79;100.00;96593.44;5091545;28;20249;-81
2021/08/04 08:35:44;;;;;;;9.93;9.02;;;;;;;30.71;100.00;96594.81;5091657;28;20221;-81
2021/08/04 08:38:12;;;;;;;15.38;13.43;;;;;;;30.76;100.00;96588.59;5091858;28;20196;-81
2021/08/04 08:40:39;;;;;;;11.43;9.13;;;;;;;30.69;100.00;96580.72;5091651;28;20199;-81
2021/08/04 08:43:07;;;;;;;11.57;9.93;;;;;;;30.98;100.00;96575.41;5091476;28;20204;-81
2021/08/04 08:45:34;;;;;;;9.95;8.95;;;;;;;31.12;100.00;96569.34;5091740;28;20192;-81
2021/08/04 08:48:01;;;;;;;9.07;8.18;;;;;;;31.21;100.00;96567.63;5091662;28;20222;-81
2021/08/04 08:50:30;;;;;;;13.07;9.57;;;;;;;31.55;100.00;96562.22;5091611;28;20617;-81
2021/08/04 08:52:58;;;;;;;10.30;8.88;;;;;;;31.75;100.00;96561.22;5091529;28;20220;-81
2021/08/04 08:55:26;;;;;;;12.55;8.55;;;;;;;31.72;100.00;96556.38;5093622;28;20200;-81
2021/08/04 08:57:54;;;;;;;12.43;8.75;;;;;;;32.11;100.00;96552.72;5095443;28;20200;-81
2021/08/04 09:00:22;;;;;;;11.98;9.10;;;;;;;32.08;100.00;96551.41;5095622;28;20250;-81
2021/08/04 09:02:49;;;;;;;11.75;8.65;;;;;;;32.00;100.00;96546.59;5095330;28;20647;-81
2021/08/04 09:05:17;;;;;;;9.75;8.73;;;;;;;31.79;100.00;96548.69;5095521;28;20236;-81
2021/08/04 09:07:47;;;;;;;12.75;8.88;;;;;;;31.68;100.00;96545.25;5095537;28;20567;-81
2021/08/04 09:10:26;;;;;;;11.23;8.90;;;;;;;31.72;100.00;96542.78;5095453;28;20228;-81
2021/08/04 09:12:56;;;;;;;9.25;8.45;;;;;;;31.72;100.00;96549.03;5094859;28;20223;-81
2021/08/04 09:15:25;;;;;;;11.40;8.55;;;;;;;31.43;100.00;96542.78;5095546;28;20253;-81
2021/08/04 09:18:09;;;;;;;11.73;8.85;;;;;;;31.94;100.00;96545.84;5095012;28;20203;-81
2021/08/04 09:20:46;;;;;;;9.20;8.40;;;;;;;32.16;100.00;96539.88;5095368;28;20196;-81
2021/08/04 09:23:17;;;;;;;11.10;8.13;;;;;;;32.39;100.00;96530.09;5095239;28;20188;-80
2021/08/04 09:26:05;;;;;;;10.05;9.05;;;;;;;32.75;100.00;96531.53;5094966;28;20222;-81
2021/08/04 09:28:52;;;;;;;10.75;8.77;;;;;;;32.94;100.00;96526.06;5095025;28;20201;-82
2021/08/04 09:31:20;;;;;;;11.23;9.15;;;;;;;32.84;100.00;96519.69;5094861;28;20645;-81
2021/08/04 09:33:48;;;;;;;13.60;8.77;;;;;;;32.11;100.00;96530.97;5094818;28;20262;-81
2021/08/04 09:36:27;;;;;;;12.80;8.73;;;;;;;32.35;100.00;96523.63;5094656;28;20200;-81
2021/08/04 09:39:07;;;;;;;11.48;8.60;;;;;;;32.28;100.00;96516.88;5094614;28;20188;-81
2021/08/04 09:41:34;;;;;;;12.25;8.45;;;;;;;32.25;100.00;96521.03;5094610;28;20199;-81
2021/08/04 09:44:06;;;;;;;9.57;8.57;;;;;;;32.59;100.00;96520.03;5094694;28;20188;-81
2021/08/04 09:46:34;;;;;;;9.68;8.65;;;;;;;32.51;100.00;96504.38;5094168;28;20649;-81
2021/08/04 09:49:11;;;;;;;11.07;7.50;;;;;;;32.97;100.00;96504.53;5094644;28;20250;-81
2021/08/04 09:51:39;;;;;;;9.60;7.68;;;;;;;33.21;100.00;96504.41;5094476;28;20204;-81
2021/08/04 09:54:11;;;;;;;13.07;7.85;;;;;;;33.39;100.00;96505.47;5094203;28;20220;-81
2021/08/04 09:56:50;;;;;;;11.73;7.55;;;;;;;33.49;100.00;96491.69;5094350;28;20193;-82
2021/08/04 09:59:17;;;;;;;10.23;7.97;;;;;;;33.10;100.00;96503.78;5094386;28;20241;-81
2021/08/04 10:01:44;;;;;;;8.98;8.10;;;;;;;32.92;100.00;96496.44;5094158;28;20246;-81
2021/08/04 10:04:14;;;;;;;9.93;8.32;;;;;;;33.43;100.00;96490.16;5094127;28;20727;-81
2021/08/04 10:06:43;;;;;;;7.65;6.95;;;;;;;33.09;100.00;96485.03;5093074;28;20197;-82
2021/08/04 10:09:13;;;;;;;10.93;8.60;;;;;;;33.14;100.00;96479.47;5094176;28;20243;-82
2021/08/04 10:11:43;;;;;;;8.43;7.53;;;;;;;33.44;100.00;96483.59;5094369;28;20278;-81
2021/08/04 10:14:13;;;;;;;8.85;7.78;;;;;;;33.73;100.00;96477.91;5094023;28;20729;-82
2021/08/04 10:16:42;;;;;;;9.90;8.32;;;;;;;33.71;100.00;96482.06;5094270;28;20184;-82
2021/08/04 10:19:09;;;;;;;8.10;7.15;;;;;;;34.00;100.00;96473.59;5093982;28;20198;-81
2021/08/04 10:21:39;;;;;;;7.75;6.93;;;;;;;33.57;100.00;96471.94;5093648;28;20232;-81
2021/08/04 10:24:07;;;;;;;9.63;7.57;;;;;;;33.58;100.00;96461.84;5093831;28;20232;-82
2021/08/04 10:26:37;;;;;;;7.93;7.13;;;;;;;33.55;100.00;96462.44;5093724;28;20207;-82
2021/08/04 10:29:05;;;;;;;13.82;7.63;;;;;;;34.01;100.00;96461.56;5093751;28;20205;-81
2021/08/04 10:31:33;;;;;;;8.30;7.50;;;;;;;34.19;100.00;96457.09;5093924;28;20193;-82
2021/08/04 10:34:01;;;;;;;11.57;7.32;;;;;;;33.91;100.00;96464.47;5093450;28;20278;-82
2021/08/04 10:36:34;;;;;;;10.82;7.57;;;;;;;34.00;100.00;96459.97;5093520;28;20196;-82
2021/08/04 10:39:06;;;;;;;12.02;7.43;;;;;;;34.47;100.00;96463.31;5093720;28;20188;-81
2021/08/04 10:41:35;;;;;;;14.85;8.13;;;;;;;34.35;100.00;96452.91;5093454;28;20216;-81
2021/08/04 10:44:04;;;;;;;9.13;8.07;;;;;;;33.77;100.00;96451.66;5093563;28;20192;-81
2021/08/04 10:46:42;;;;;;;9.88;7.65;;;;;;;33.72;100.00;96438.13;5093380;28;20197;-82
2021/08/04 10:49:21;;;;;;;14.27;7.78;;;;;;;33.74;100.00;96438.66;5093420;28;20688;-82
2021/08/04 10:52:12;;;;;;;12.18;7.95;;;;;;;34.03;100.00;96432.09;5093355;28;20205;-81
2021/08/04 10:55:05;;;;;;;12.13;7.10;;;;;;;34.10;100.00;96437.94;5093085;28;20243;-82
2021/08/04 10:57:36;;;;;;;12.18;7.80;;;;;;;34.03;100.00;96434.81;5093163;28;20184;-82
2021/08/04 11:00:23;;;;;;;11.43;8.15;;;;;;;33.86;100.00;96421.75;5093519;28;20211;-82
2021/08/04 11:02:50;;;;;;;12.82;8.02;;;;;;;33.80;100.00;96421.06;5093073;28;20199;-81
2021/08/04 11:05:17;;;;;;;9.18;8.15;;;;;;;34.30;100.00;96412.94;5092881;28;20207;-82
2021/08/04 11:08:17;;;;;;;10.20;7.25;;;;;;;34.38;100.00;96413.31;5093296;28;20196;-82
2021/08/04 11:10:45;;;;;;;10.48;7.18;;;;;;;34.27;100.00;96415.47;5093143;28;20192;-82
2021/08/04 11:13:52;;;;;;;8.90;6.57;;;;;;;34.49;100.00;96409.22;5092654;28;20602;-82
2021/08/04 11:16:30;;;;;;;7.65;6.88;;;;;;;34.73;100.00;96401.56;5092791;28;20188;-82
2021/08/04 11:19:02;;;;;;;12.35;7.45;;;;;;;34.51;100.00;96407.03;5093029;28;20193;-82
2021/08/04 11:21:30;;;;;;;10.40;7.13;;;;;;;34.61;100.00;96398.59;5092575;28;20797;-82
2021/08/04 11:23:59;;;;;;;10.18;6.57;;;;;;;34.46;100.00;96398.91;5092827;28;20202;-81
2021/08/04 11:26:30;;;;;;;12.43;7.22;;;;;;;34.61;100.00;96397.81;5092593;28;20192;-82
2021/08/04 11:28:59;;;;;;;8.13;6.55;;;;;;;34.61;100.00;96404.06;5092710;28;20185;-82
2021/08/04 11:31:27;;;;;;;9.98;6.28;;;;;;;34.70;100.00;96395.91;5092531;28;20192;-82